Time;durP1;ratioP1;P1;durP2;ratioP2;P2;SDS_P1;SDS_P2;PMS_P1;PMS_P2;Temp;Humidity;BMP_temperature;BMP_pressure;BME280_temperature;BME280_humidity;BME280_pressure;Samples;Min_cycle;Max_cycle;Signal;HPM_P1;HPM_P2
2022/12/16 00:01:10;;;;;;;57.87;23.13;;;-7.70;99.90;;;;;;4362601;28;10000823;-74
2022/12/16 00:03:37;;;;;;;64.60;24.90;;;-7.70;99.90;;;;;;5058993;28;20270;-74
2022/12/16 00:06:03;;;;;;;59.97;23.50;;;-7.60;99.90;;;;;;5063212;28;20052;-74
2022/12/16 00:08:32;;;;;;;60.90;25.27;;;-7.60;99.90;;;;;;5064199;28;20032;-74
2022/12/16 00:10:58;;;;;;;54.37;22.03;;;-7.60;99.90;;;;;;5064816;28;20448;-74
2022/12/16 00:13:24;;;;;;;53.83;22.97;;;-7.50;99.90;;;;;;5055718;28;20024;-74
2022/12/16 00:15:50;;;;;;;54.60;22.70;;;-7.50;99.90;;;;;;5065919;28;20022;-74
2022/12/16 00:18:18;;;;;;;53.53;21.77;;;-7.60;99.90;;;;;;5062777;28;20042;-74
2022/12/16 00:20:48;;;;;;;57.57;23.77;;;-7.60;99.90;;;;;;5063703;28;20357;-74
2022/12/16 00:23:15;;;;;;;57.27;21.93;;;-7.70;99.90;;;;;;5060771;28;20467;-74
2022/12/16 00:25:42;;;;;;;82.63;29.73;;;-7.70;99.90;;;;;;5061457;28;20031;-74
2022/12/16 00:28:09;;;;;;;69.67;27.57;;;-7.50;99.90;;;;;;5061304;28;20764;-74
2022/12/16 00:30:34;;;;;;;67.70;25.60;;;-7.30;99.90;;;;;;5063926;28;20142;-74
2022/12/16 00:33:00;;;;;;;59.87;25.23;;;-7.30;99.90;;;;;;5061589;28;20024;-74
2022/12/16 00:35:26;;;;;;;57.97;23.50;;;-7.30;99.90;;;;;;5067439;28;20070;-74
2022/12/16 00:37:51;;;;;;;60.70;25.20;;;-7.40;99.90;;;;;;5069985;28;20966;-74
2022/12/16 00:40:17;;;;;;;60.70;24.43;;;-7.30;99.90;;;;;;5068351;28;20038;-74
2022/12/16 00:42:43;;;;;;;61.03;25.00;;;-7.20;99.90;;;;;;5063880;28;20371;-74
2022/12/16 00:45:08;;;;;;;63.90;26.67;;;-7.20;99.90;;;;;;5061853;28;20048;-74
2022/12/16 00:47:34;;;;;;;66.73;27.53;;;-7.10;99.90;;;;;;5063143;28;20024;-74
2022/12/16 00:50:00;;;;;;;68.80;28.13;;;-6.90;99.90;;;;;;5062693;28;20517;-74
2022/12/16 00:52:26;;;;;;;62.55;26.65;;;-6.70;99.90;;;;;;5063584;28;20047;-74
2022/12/16 00:54:51;;;;;;;61.35;26.80;;;-6.60;99.90;;;;;;5061844;28;20064;-74
2022/12/16 00:57:17;;;;;;;65.68;28.02;;;-6.40;99.90;;;;;;5064155;28;20115;-74
2022/12/16 00:59:43;;;;;;;67.13;29.07;;;-6.30;99.90;;;;;;5062116;28;20043;-75
2022/12/16 01:02:09;;;;;;;72.93;27.87;;;-6.20;99.90;;;;;;5063190;28;20016;-74
2022/12/16 01:04:35;;;;;;;68.45;29.75;;;-6.20;99.90;;;;;;5061510;28;20486;-74
2022/12/16 01:07:01;;;;;;;67.30;28.15;;;-6.20;99.90;;;;;;5065103;28;20149;-74
2022/12/16 01:09:26;;;;;;;72.80;30.73;;;-6.20;99.90;;;;;;5065039;28;20024;-74
2022/12/16 01:11:52;;;;;;;71.50;29.20;;;-6.20;99.90;;;;;;5064815;28;20067;-75
2022/12/16 01:14:18;;;;;;;69.93;28.27;;;-6.20;99.90;;;;;;5057795;28;20028;-74
2022/12/16 01:16:44;;;;;;;76.47;30.53;;;-6.20;99.90;;;;;;5068014;28;20035;-74
2022/12/16 01:19:09;;;;;;;73.33;31.37;;;-6.10;99.90;;;;;;5067948;28;20238;-75
2022/12/16 01:21:35;;;;;;;74.40;29.70;;;-6.10;99.90;;;;;;5068220;28;20026;-74
2022/12/16 01:24:01;;;;;;;71.53;31.10;;;-6.10;99.90;;;;;;5059729;28;20501;-74
2022/12/16 01:26:27;;;;;;;73.43;29.30;;;-6.10;99.90;;;;;;5069626;28;20029;-75
2022/12/16 01:28:52;;;;;;;74.13;31.50;;;-6.10;99.90;;;;;;5066290;28;20058;-75
2022/12/16 01:31:19;;;;;;;69.87;29.70;;;-6.10;99.90;;;;;;5064648;28;20237;-74
2022/12/16 01:33:46;;;;;;;79.07;32.40;;;-6.10;99.90;;;;;;5069305;28;20032;-75
2022/12/16 01:36:11;;;;;;;76.37;31.17;;;-6.10;99.90;;;;;;5066947;28;20047;-74
2022/12/16 01:38:37;;;;;;;72.53;30.57;;;-6.10;99.90;;;;;;5067611;28;20036;-75
2022/12/16 01:41:03;;;;;;;72.53;30.97;;;-6.10;99.90;;;;;;5067511;28;20035;-74
2022/12/16 01:43:32;;;;;;;74.00;30.00;;;-6.10;99.90;;;;;;5063475;28;20028;-74
2022/12/16 01:46:21;;;;;;;71.70;29.43;;;-6.10;99.90;;;;;;5066707;28;20048;-74
2022/12/16 01:49:05;;;;;;;69.27;29.47;;;-6.00;99.90;;;;;;5067252;28;20039;-74
2022/12/16 01:51:42;;;;;;;73.57;30.08;;;-6.00;99.90;;;;;;5069979;28;20459;-74
2022/12/16 01:54:13;;;;;;;73.15;29.98;;;-6.00;99.90;;;;;;5068276;28;20042;-74
2022/12/16 01:56:44;;;;;;;70.77;28.50;;;-6.00;99.90;;;;;;5067838;28;20752;-74
2022/12/16 01:59:12;;;;;;;72.33;29.70;;;-6.00;99.90;;;;;;5069257;28;20296;-74
2022/12/16 02:01:38;;;;;;;66.50;28.53;;;-6.00;99.90;;;;;;5068999;28;20024;-74
2022/12/16 02:04:03;;;;;;;72.10;30.37;;;-6.00;99.90;;;;;;5067597;28;20027;-74
2022/12/16 02:06:30;;;;;;;68.13;29.57;;;-6.00;99.90;;;;;;5066253;28;20032;-74
2022/12/16 02:08:58;;;;;;;74.00;29.50;;;-6.10;99.90;;;;;;5066150;28;20120;-74
2022/12/16 02:11:48;;;;;;;73.17;29.07;;;-6.10;99.90;;;;;;5066183;28;20107;-74
2022/12/16 02:14:20;;;;;;;72.80;30.03;;;-6.10;99.90;;;;;;5061222;28;20035;-74
2022/12/16 02:17:05;;;;;;;53.35;22.60;;;-6.10;99.90;;;;;;5065403;28;20067;-74
2022/12/16 02:19:52;;;;;;;70.60;28.73;;;-6.10;99.90;;;;;;5063278;28;20350;-74
2022/12/16 02:22:39;;;;;;;81.00;30.80;;;-6.10;99.90;;;;;;5068842;28;20128;-75
2022/12/16 02:25:21;;;;;;;77.55;31.60;;;-6.10;99.90;;;;;;5069996;28;20067;-75
2022/12/16 02:28:10;;;;;;;57.35;23.42;;;-6.20;99.90;;;;;;5077631;28;20051;-74
2022/12/16 02:31:08;;;;;;;74.47;29.53;;;-6.20;99.90;;;;;;5080160;28;20047;-75
2022/12/16 02:34:02;;;;;;;67.37;27.77;;;-6.30;99.90;;;;;;5074352;28;20036;-75
2022/12/16 02:36:55;;;;;;;58.63;26.47;;;-6.20;99.90;;;;;;5081977;28;20119;-74
2022/12/16 02:39:50;;;;;;;59.55;26.20;;;-6.30;99.90;;;;;;5083818;28;20486;-75
2022/12/16 02:42:23;;;;;;;61.43;25.93;;;-6.20;99.90;;;;;;5056122;28;20032;-74
2022/12/16 02:45:00;;;;;;;59.13;25.40;;;-6.30;99.90;;;;;;5081364;28;20048;-75
2022/12/16 02:47:27;;;;;;;54.83;23.93;;;-6.20;99.90;;;;;;5084002;28;20016;-74
2022/12/16 02:49:54;;;;;;;55.90;23.67;;;-6.20;99.90;;;;;;5082207;28;20051;-74
2022/12/16 02:52:29;;;;;;;59.60;24.30;;;-6.20;99.90;;;;;;5074743;28;20020;-75
2022/12/16 02:54:59;;;;;;;59.90;23.93;;;-6.20;99.90;;;;;;5080107;28;20097;-74
2022/12/16 02:57:33;;;;;;;57.13;26.25;;;-6.20;99.90;;;;;;5076172;28;20513;-74
2022/12/16 03:00:13;;;;;;;52.80;24.07;;;-6.20;99.90;;;;;;5076588;28;20064;-74
2022/12/16 03:02:47;;;;;;;53.33;23.27;;;-6.10;99.90;;;;;;5076505;28;20034;-74
2022/12/16 03:05:25;;;;;;;50.17;22.17;;;-6.20;99.90;;;;;;5068894;28;20028;-73
2022/12/16 03:07:52;;;;;;;47.43;21.77;;;-6.40;99.90;;;;;;5084428;28;20024;-74
2022/12/16 03:10:22;;;;;;;53.77;24.47;;;-6.60;99.90;;;;;;5083243;28;20398;-74
2022/12/16 03:12:48;;;;;;;56.80;23.27;;;-6.70;99.90;;;;;;5079519;28;20101;-74
2022/12/16 03:15:16;;;;;;;55.07;23.57;;;-6.70;99.90;;;;;;5078147;28;20114;-74
2022/12/16 03:17:45;;;;;;;54.60;24.07;;;-6.60;99.90;;;;;;5080401;28;20110;-74
2022/12/16 03:20:17;;;;;;;54.27;23.47;;;-6.50;99.90;;;;;;5079094;28;20704;-74
2022/12/16 03:22:46;;;;;;;54.40;23.73;;;-6.40;99.90;;;;;;5072709;28;20066;-74
2022/12/16 03:25:13;;;;;;;53.87;23.90;;;-6.40;99.90;;;;;;5081012;28;20020;-74
2022/12/16 03:27:59;;;;;;;60.87;25.97;;;-6.40;99.90;;;;;;5082202;28;20115;-74
2022/12/16 03:30:35;;;;;;;62.17;27.10;;;-6.30;99.90;;;;;;5075615;28;20031;-74
2022/12/16 03:33:09;;;;;;;57.47;24.57;;;-6.30;99.90;;;;;;5080043;28;20108;-74
2022/12/16 03:35:50;;;;;;;63.33;25.63;;;-6.30;99.90;;;;;;5075994;28;20039;-74
2022/12/16 03:38:17;;;;;;;67.77;25.90;;;-6.30;99.90;;;;;;5077557;28;20024;-74
2022/12/16 03:40:43;;;;;;;55.07;24.50;;;-6.20;99.90;;;;;;5080635;28;20028;-75
2022/12/16 03:43:14;;;;;;;62.00;26.43;;;-6.20;99.90;;;;;;5082789;28;20026;-74
2022/12/16 03:45:42;;;;;;;58.47;25.60;;;-6.20;99.90;;;;;;5073793;28;20780;-74
2022/12/16 03:48:10;;;;;;;58.10;25.90;;;-6.20;99.90;;;;;;5075765;28;20028;-74
2022/12/16 03:50:38;;;;;;;57.73;25.83;;;-6.20;99.90;;;;;;5075954;28;20031;-74
2022/12/16 03:53:04;;;;;;;58.67;25.73;;;-6.20;99.90;;;;;;5076517;28;20481;-75
2022/12/16 03:55:30;;;;;;;58.77;26.73;;;-6.30;99.90;;;;;;5077379;28;20024;-75
2022/12/16 03:57:56;;;;;;;57.50;25.43;;;-6.30;99.90;;;;;;5074195;28;20028;-75
2022/12/16 04:00:23;;;;;;;57.37;25.53;;;-6.20;99.90;;;;;;5083803;28;20032;-74
2022/12/16 04:02:49;;;;;;;57.53;25.20;;;-6.30;99.90;;;;;;5073992;28;20034;-74
2022/12/16 04:05:15;;;;;;;57.97;24.90;;;-6.30;99.90;;;;;;5066745;28;20012;-74
2022/12/16 04:07:41;;;;;;;58.47;25.40;;;-6.30;99.90;;;;;;5074357;28;20190;-74
2022/12/16 04:10:07;;;;;;;59.93;25.90;;;-6.40;99.90;;;;;;5077028;28;20054;-74
2022/12/16 04:26:21;;;;;;;55.87;22.50;;;-6.40;99.90;;;;;;5073145;28;20028;-74
2022/12/16 04:28:47;;;;;;;50.33;22.77;;;-6.40;99.90;;;;;;5075965;28;20058;-74
2022/12/16 04:31:12;;;;;;;51.53;23.23;;;-6.40;99.90;;;;;;5078500;28;20061;-74
